sensor_id;sensor_type;location;lat;lon;timestamp;temperature;humidity
68485;DHT22;55472;50.060;21.960;2023-07-31T00:00:41;19.40;88.40
68485;DHT22;55472;50.060;21.960;2023-07-31T00:03:25;19.40;88.40
68485;DHT22;55472;50.060;21.960;2023-07-31T00:05:51;19.30;88.40
68485;DHT22;55472;50.060;21.960;2023-07-31T00:08:17;19.30;88.60
68485;DHT22;55472;50.060;21.960;2023-07-31T00:10:43;19.20;88.90
68485;DHT22;55472;50.060;21.960;2023-07-31T00:13:09;19.20;89.00
68485;DHT22;55472;50.060;21.960;2023-07-31T00:15:35;19.10;89.00
68485;DHT22;55472;50.060;21.960;2023-07-31T00:18:01;19.10;89.20
68485;DHT22;55472;50.060;21.960;2023-07-31T00:20:28;19.10;89.30
68485;DHT22;55472;50.060;21.960;2023-07-31T00:22:54;19.00;89.50
68485;DHT22;55472;50.060;21.960;2023-07-31T00:25:20;19.00;89.90
68485;DHT22;55472;50.060;21.960;2023-07-31T00:27:46;18.90;90.00
68485;DHT22;55472;50.060;21.960;2023-07-31T00:30:12;18.90;90.10
68485;DHT22;55472;50.060;21.960;2023-07-31T00:32:38;18.90;90.20
68485;DHT22;55472;50.060;21.960;2023-07-31T00:35:05;18.80;90.00
68485;DHT22;55472;50.060;21.960;2023-07-31T00:37:31;18.80;90.10
68485;DHT22;55472;50.060;21.960;2023-07-31T00:39:57;18.80;90.50
68485;DHT22;55472;50.060;21.960;2023-07-31T00:42:24;18.80;90.30
68485;DHT22;55472;50.060;21.960;2023-07-31T00:44:51;18.70;90.30
68485;DHT22;55472;50.060;21.960;2023-07-31T00:47:17;18.70;90.30
68485;DHT22;55472;50.060;21.960;2023-07-31T00:49:43;18.70;90.40
68485;DHT22;55472;50.060;21.960;2023-07-31T00:52:10;18.60;90.50
68485;DHT22;55472;50.060;21.960;2023-07-31T00:54:36;18.60;90.40
68485;DHT22;55472;50.060;21.960;2023-07-31T00:57:03;18.60;90.40
68485;DHT22;55472;50.060;21.960;2023-07-31T00:59:29;18.60;90.40
68485;DHT22;55472;50.060;21.960;2023-07-31T01:01:55;18.50;90.50
68485;DHT22;55472;50.060;21.960;2023-07-31T01:04:22;18.50;90.70
68485;DHT22;55472;50.060;21.960;2023-07-31T01:12:15;18.60;90.60
68485;DHT22;55472;50.060;21.960;2023-07-31T01:15:12;18.50;90.40
68485;DHT22;55472;50.060;21.960;2023-07-31T01:17:40;18.50;90.30
68485;DHT22;55472;50.060;21.960;2023-07-31T01:20:10;18.50;90.00
68485;DHT22;55472;50.060;21.960;2023-07-31T01:26:12;18.50;89.70
68485;DHT22;55472;50.060;21.960;2023-07-31T01:28:55;18.50;89.70
68485;DHT22;55472;50.060;21.960;2023-07-31T01:31:29;18.40;89.80
68485;DHT22;55472;50.060;21.960;2023-07-31T01:33:59;18.40;89.70
68485;DHT22;55472;50.060;21.960;2023-07-31T01:36:28;18.40;90.10
68485;DHT22;55472;50.060;21.960;2023-07-31T01:39:01;18.30;90.00
68485;DHT22;55472;50.060;21.960;2023-07-31T01:41:28;18.30;90.10
68485;DHT22;55472;50.060;21.960;2023-07-31T01:43:54;18.20;90.10
68485;DHT22;55472;50.060;21.960;2023-07-31T01:46:20;18.20;90.10
68485;DHT22;55472;50.060;21.960;2023-07-31T01:48:46;18.20;90.30
68485;DHT22;55472;50.060;21.960;2023-07-31T01:51:12;18.20;90.00
68485;DHT22;55472;50.060;21.960;2023-07-31T01:53:39;18.10;90.20
68485;DHT22;55472;50.060;21.960;2023-07-31T01:56:05;18.10;90.20
68485;DHT22;55472;50.060;21.960;2023-07-31T01:58:31;18.10;90.20
68485;DHT22;55472;50.060;21.960;2023-07-31T02:00:57;18.10;90.40
68485;DHT22;55472;50.060;21.960;2023-07-31T02:03:23;18.00;90.50
68485;DHT22;55472;50.060;21.960;2023-07-31T02:05:50;18.00;90.30
68485;DHT22;55472;50.060;21.960;2023-07-31T02:08:16;18.00;90.50
68485;DHT22;55472;50.060;21.960;2023-07-31T02:10:43;18.00;90.60
68485;DHT22;55472;50.060;21.960;2023-07-31T02:13:09;17.90;90.40
68485;DHT22;55472;50.060;21.960;2023-07-31T02:15:35;17.90;90.40
68485;DHT22;55472;50.060;21.960;2023-07-31T02:18:02;17.90;90.60
68485;DHT22;55472;50.060;21.960;2023-07-31T02:20:28;17.90;90.60
68485;DHT22;55472;50.060;21.960;2023-07-31T02:22:54;17.80;90.80
68485;DHT22;55472;50.060;21.960;2023-07-31T02:25:20;17.80;90.70
68485;DHT22;55472;50.060;21.960;2023-07-31T02:27:46;17.80;90.60
68485;DHT22;55472;50.060;21.960;2023-07-31T02:30:13;17.80;90.50
68485;DHT22;55472;50.060;21.960;2023-07-31T02:32:39;17.80;90.40
68485;DHT22;55472;50.060;21.960;2023-07-31T02:35:05;17.70;90.20
68485;DHT22;55472;50.060;21.960;2023-07-31T02:37:31;17.70;90.00
68485;DHT22;55472;50.060;21.960;2023-07-31T02:39:58;17.70;90.00
68485;DHT22;55472;50.060;21.960;2023-07-31T02:42:23;17.60;90.20
68485;DHT22;55472;50.060;21.960;2023-07-31T02:44:50;17.60;90.40
68485;DHT22;55472;50.060;21.960;2023-07-31T02:47:21;17.60;90.50
68485;DHT22;55472;50.060;21.960;2023-07-31T02:49:48;17.60;90.80
68485;DHT22;55472;50.060;21.960;2023-07-31T02:52:14;17.60;90.70
68485;DHT22;55472;50.060;21.960;2023-07-31T02:54:40;17.60;90.70
68485;DHT22;55472;50.060;21.960;2023-07-31T02:57:07;17.60;90.50
68485;DHT22;55472;50.060;21.960;2023-07-31T02:59:33;17.60;89.90
68485;DHT22;55472;50.060;21.960;2023-07-31T03:01:59;17.50;89.80
68485;DHT22;55472;50.060;21.960;2023-07-31T03:04:25;17.50;90.10
68485;DHT22;55472;50.060;21.960;2023-07-31T03:06:51;17.50;90.40
68485;DHT22;55472;50.060;21.960;2023-07-31T03:09:17;17.50;90.60
68485;DHT22;55472;50.060;21.960;2023-07-31T03:11:45;17.40;90.50
68485;DHT22;55472;50.060;21.960;2023-07-31T03:14:11;17.40;90.70
68485;DHT22;55472;50.060;21.960;2023-07-31T03:16:37;17.40;91.40
68485;DHT22;55472;50.060;21.960;2023-07-31T03:19:03;17.30;91.50
68485;DHT22;55472;50.060;21.960;2023-07-31T03:21:29;17.40;91.50
68485;DHT22;55472;50.060;21.960;2023-07-31T03:23:55;17.40;91.40
68485;DHT22;55472;50.060;21.960;2023-07-31T03:26:21;17.40;91.60
68485;DHT22;55472;50.060;21.960;2023-07-31T03:28:48;17.40;91.30
68485;DHT22;55472;50.060;21.960;2023-07-31T03:31:15;17.40;91.30
68485;DHT22;55472;50.060;21.960;2023-07-31T03:33:41;17.30;91.20
68485;DHT22;55472;50.060;21.960;2023-07-31T03:36:07;17.40;91.10
68485;DHT22;55472;50.060;21.960;2023-07-31T03:38:34;17.40;91.40
68485;DHT22;55472;50.060;21.960;2023-07-31T03:41:00;17.30;91.20
68485;DHT22;55472;50.060;21.960;2023-07-31T03:43:28;17.30;91.40
68485;DHT22;55472;50.060;21.960;2023-07-31T03:45:54;17.40;91.40
68485;DHT22;55472;50.060;21.960;2023-07-31T03:48:20;17.40;91.40
68485;DHT22;55472;50.060;21.960;2023-07-31T03:50:46;17.40;91.40
68485;DHT22;55472;50.060;21.960;2023-07-31T03:53:12;17.40;91.50
68485;DHT22;55472;50.060;21.960;2023-07-31T03:55:38;17.40;91.10
68485;DHT22;55472;50.060;21.960;2023-07-31T03:58:05;17.50;91.50
68485;DHT22;55472;50.060;21.960;2023-07-31T04:00:31;17.50;91.60
68485;DHT22;55472;50.060;21.960;2023-07-31T04:02:57;17.50;91.70
68485;DHT22;55472;50.060;21.960;2023-07-31T04:05:23;17.50;91.70
68485;DHT22;55472;50.060;21.960;2023-07-31T04:07:49;17.50;91.80
68485;DHT22;55472;50.060;21.960;2023-07-31T04:10:15;17.60;91.70
68485;DHT22;55472;50.060;21.960;2023-07-31T04:12:42;17.60;91.90
68485;DHT22;55472;50.060;21.960;2023-07-31T04:15:08;17.60;92.00
68485;DHT22;55472;50.060;21.960;2023-07-31T04:17:34;17.60;92.10
68485;DHT22;55472;50.060;21.960;2023-07-31T04:20:00;17.70;91.90
68485;DHT22;55472;50.060;21.960;2023-07-31T04:22:27;17.70;92.30
68485;DHT22;55472;50.060;21.960;2023-07-31T04:24:53;17.70;91.70
68485;DHT22;55472;50.060;21.960;2023-07-31T04:27:19;17.70;92.00
68485;DHT22;55472;50.060;21.960;2023-07-31T04:29:45;17.80;91.60
68485;DHT22;55472;50.060;21.960;2023-07-31T04:32:13;17.80;91.70
68485;DHT22;55472;50.060;21.960;2023-07-31T04:34:42;17.80;91.20
68485;DHT22;55472;50.060;21.960;2023-07-31T04:37:09;17.80;91.20
68485;DHT22;55472;50.060;21.960;2023-07-31T04:39:35;17.90;91.20
68485;DHT22;55472;50.060;21.960;2023-07-31T04:42:01;17.90;90.80
68485;DHT22;55472;50.060;21.960;2023-07-31T04:44:27;18.00;91.00
68485;DHT22;55472;50.060;21.960;2023-07-31T04:46:54;18.10;91.00
68485;DHT22;55472;50.060;21.960;2023-07-31T04:49:20;18.20;90.70
68485;DHT22;55472;50.060;21.960;2023-07-31T04:51:46;18.20;89.90
68485;DHT22;55472;50.060;21.960;2023-07-31T04:54:12;18.30;89.60
68485;DHT22;55472;50.060;21.960;2023-07-31T04:56:41;18.40;89.50
68485;DHT22;55472;50.060;21.960;2023-07-31T04:59:07;18.50;89.20
68485;DHT22;55472;50.060;21.960;2023-07-31T05:01:33;18.50;89.10
68485;DHT22;55472;50.060;21.960;2023-07-31T05:03:59;18.60;89.20
68485;DHT22;55472;50.060;21.960;2023-07-31T05:06:25;18.60;89.40
68485;DHT22;55472;50.060;21.960;2023-07-31T05:08:51;18.70;89.40
68485;DHT22;55472;50.060;21.960;2023-07-31T05:11:18;18.70;88.90
68485;DHT22;55472;50.060;21.960;2023-07-31T05:13:44;18.70;88.40
68485;DHT22;55472;50.060;21.960;2023-07-31T05:16:10;18.80;88.00
68485;DHT22;55472;50.060;21.960;2023-07-31T05:18:36;18.80;87.70
68485;DHT22;55472;50.060;21.960;2023-07-31T05:21:02;18.80;87.60
68485;DHT22;55472;50.060;21.960;2023-07-31T05:23:28;18.90;87.70
68485;DHT22;55472;50.060;21.960;2023-07-31T05:26:03;18.90;87.10
68485;DHT22;55472;50.060;21.960;2023-07-31T05:28:34;19.00;87.00
68485;DHT22;55472;50.060;21.960;2023-07-31T05:31:02;19.10;86.70
68485;DHT22;55472;50.060;21.960;2023-07-31T05:33:29;19.10;86.70
68485;DHT22;55472;50.060;21.960;2023-07-31T05:35:55;19.20;86.70
68485;DHT22;55472;50.060;21.960;2023-07-31T05:38:21;19.30;85.90
68485;DHT22;55472;50.060;21.960;2023-07-31T05:40:47;19.40;85.30
68485;DHT22;55472;50.060;21.960;2023-07-31T05:43:17;19.50;85.30
68485;DHT22;55472;50.060;21.960;2023-07-31T05:45:43;19.60;84.50
68485;DHT22;55472;50.060;21.960;2023-07-31T05:48:09;19.60;84.70
68485;DHT22;55472;50.060;21.960;2023-07-31T05:50:35;19.60;84.50
68485;DHT22;55472;50.060;21.960;2023-07-31T05:53:04;19.70;84.40
68485;DHT22;55472;50.060;21.960;2023-07-31T05:55:31;19.70;84.10
68485;DHT22;55472;50.060;21.960;2023-07-31T05:57:57;19.70;83.70
68485;DHT22;55472;50.060;21.960;2023-07-31T06:00:23;19.70;83.80
68485;DHT22;55472;50.060;21.960;2023-07-31T06:02:49;19.70;83.40
68485;DHT22;55472;50.060;21.960;2023-07-31T06:05:15;19.80;83.30
68485;DHT22;55472;50.060;21.960;2023-07-31T06:07:41;19.80;83.50
68485;DHT22;55472;50.060;21.960;2023-07-31T06:10:08;19.80;83.80
68485;DHT22;55472;50.060;21.960;2023-07-31T06:12:35;19.90;83.60
68485;DHT22;55472;50.060;21.960;2023-07-31T06:15:03;20.00;83.30
68485;DHT22;55472;50.060;21.960;2023-07-31T06:17:29;20.10;82.80
68485;DHT22;55472;50.060;21.960;2023-07-31T06:19:56;20.20;82.50
68485;DHT22;55472;50.060;21.960;2023-07-31T06:22:22;20.20;82.60
68485;DHT22;55472;50.060;21.960;2023-07-31T06:24:49;20.30;82.10
68485;DHT22;55472;50.060;21.960;2023-07-31T06:27:15;20.40;81.60
68485;DHT22;55472;50.060;21.960;2023-07-31T06:29:42;20.50;81.30
68485;DHT22;55472;50.060;21.960;2023-07-31T06:32:08;20.50;80.80
68485;DHT22;55472;50.060;21.960;2023-07-31T06:34:34;20.60;80.30
68485;DHT22;55472;50.060;21.960;2023-07-31T06:37:00;20.60;79.90
68485;DHT22;55472;50.060;21.960;2023-07-31T06:39:27;20.60;80.00
68485;DHT22;55472;50.060;21.960;2023-07-31T06:41:53;20.70;80.00
68485;DHT22;55472;50.060;21.960;2023-07-31T06:44:19;20.70;80.00
68485;DHT22;55472;50.060;21.960;2023-07-31T06:46:45;20.70;79.90
68485;DHT22;55472;50.060;21.960;2023-07-31T06:49:11;20.80;79.80
68485;DHT22;55472;50.060;21.960;2023-07-31T06:51:37;20.90;79.40
68485;DHT22;55472;50.060;21.960;2023-07-31T06:54:04;20.90;79.70
68485;DHT22;55472;50.060;21.960;2023-07-31T06:56:30;21.00;79.60
68485;DHT22;55472;50.060;21.960;2023-07-31T06:58:56;21.00;79.10
68485;DHT22;55472;50.060;21.960;2023-07-31T07:01:22;21.00;79.10
68485;DHT22;55472;50.060;21.960;2023-07-31T07:03:49;21.00;79.00
68485;DHT22;55472;50.060;21.960;2023-07-31T07:06:17;21.00;79.10
68485;DHT22;55472;50.060;21.960;2023-07-31T07:08:43;21.10;79.30
68485;DHT22;55472;50.060;21.960;2023-07-31T07:11:09;21.10;78.70
68485;DHT22;55472;50.060;21.960;2023-07-31T07:13:36;21.20;78.00
68485;DHT22;55472;50.060;21.960;2023-07-31T07:16:02;21.30;77.90
68485;DHT22;55472;50.060;21.960;2023-07-31T07:18:28;21.40;77.00
68485;DHT22;55472;50.060;21.960;2023-07-31T07:20:54;21.50;77.20
68485;DHT22;55472;50.060;21.960;2023-07-31T07:23:23;21.60;76.90
68485;DHT22;55472;50.060;21.960;2023-07-31T07:25:49;21.60;76.40
68485;DHT22;55472;50.060;21.960;2023-07-31T07:28:15;21.60;76.40
68485;DHT22;55472;50.060;21.960;2023-07-31T07:30:41;21.60;76.40
68485;DHT22;55472;50.060;21.960;2023-07-31T07:33:08;21.60;75.90
68485;DHT22;55472;50.060;21.960;2023-07-31T07:35:34;21.60;75.70
68485;DHT22;55472;50.060;21.960;2023-07-31T07:38:02;21.60;76.40
68485;DHT22;55472;50.060;21.960;2023-07-31T07:40:28;21.60;76.20
68485;DHT22;55472;50.060;21.960;2023-07-31T07:42:55;21.60;76.50
68485;DHT22;55472;50.060;21.960;2023-07-31T07:45:21;21.60;76.60
68485;DHT22;55472;50.060;21.960;2023-07-31T07:47:47;21.70;76.60
68485;DHT22;55472;50.060;21.960;2023-07-31T07:50:13;21.80;76.50
68485;DHT22;55472;50.060;21.960;2023-07-31T07:52:39;22.00;76.70
68485;DHT22;55472;50.060;21.960;2023-07-31T07:55:05;22.20;76.40
68485;DHT22;55472;50.060;21.960;2023-07-31T07:57:32;22.50;75.70
68485;DHT22;55472;50.060;21.960;2023-07-31T07:59:58;22.70;74.70
68485;DHT22;55472;50.060;21.960;2023-07-31T08:02:24;22.90;74.40
68485;DHT22;55472;50.060;21.960;2023-07-31T08:04:53;22.90;73.90
68485;DHT22;55472;50.060;21.960;2023-07-31T08:07:20;23.00;73.80
68485;DHT22;55472;50.060;21.960;2023-07-31T08:09:46;23.00;73.50
68485;DHT22;55472;50.060;21.960;2023-07-31T08:12:12;22.90;73.40
68485;DHT22;55472;50.060;21.960;2023-07-31T08:14:38;22.90;73.10
68485;DHT22;55472;50.060;21.960;2023-07-31T08:17:04;22.80;73.60
68485;DHT22;55472;50.060;21.960;2023-07-31T08:19:30;22.70;73.90
68485;DHT22;55472;50.060;21.960;2023-07-31T08:21:56;22.70;74.00
68485;DHT22;55472;50.060;21.960;2023-07-31T08:24:22;22.60;74.50
68485;DHT22;55472;50.060;21.960;2023-07-31T08:26:49;22.60;73.70
68485;DHT22;55472;50.060;21.960;2023-07-31T08:29:15;22.80;73.40
68485;DHT22;55472;50.060;21.960;2023-07-31T08:31:41;23.00;72.60
68485;DHT22;55472;50.060;21.960;2023-07-31T08:34:07;23.10;71.60
68485;DHT22;55472;50.060;21.960;2023-07-31T08:36:33;23.30;71.50
68485;DHT22;55472;50.060;21.960;2023-07-31T08:38:59;23.60;71.40
68485;DHT22;55472;50.060;21.960;2023-07-31T08:41:25;23.90;70.40
68485;DHT22;55472;50.060;21.960;2023-07-31T08:43:53;24.30;68.80
68485;DHT22;55472;50.060;21.960;2023-07-31T08:46:21;24.70;68.20
68485;DHT22;55472;50.060;21.960;2023-07-31T08:48:47;25.00;67.30
68485;DHT22;55472;50.060;21.960;2023-07-31T08:51:14;25.20;66.00
68485;DHT22;55472;50.060;21.960;2023-07-31T08:53:41;25.40;65.70
68485;DHT22;55472;50.060;21.960;2023-07-31T08:56:07;25.80;65.10
68485;DHT22;55472;50.060;21.960;2023-07-31T08:58:35;26.30;64.00
68485;DHT22;55472;50.060;21.960;2023-07-31T09:01:04;26.60;62.80
68485;DHT22;55472;50.060;21.960;2023-07-31T09:03:34;26.60;61.90
68485;DHT22;55472;50.060;21.960;2023-07-31T09:06:03;27.10;61.80
68485;DHT22;55472;50.060;21.960;2023-07-31T09:08:31;28.50;57.20
68485;DHT22;55472;50.060;21.960;2023-07-31T09:11:02;30.00;55.00
68485;DHT22;55472;50.060;21.960;2023-07-31T09:13:32;31.30;52.40
68485;DHT22;55472;50.060;21.960;2023-07-31T09:15:58;31.20;51.60
68485;DHT22;55472;50.060;21.960;2023-07-31T09:18:24;30.60;51.80
68485;DHT22;55472;50.060;21.960;2023-07-31T09:21:01;30.20;52.60
68485;DHT22;55472;50.060;21.960;2023-07-31T09:23:44;29.50;53.40
68485;DHT22;55472;50.060;21.960;2023-07-31T09:26:29;29.40;54.00
68485;DHT22;55472;50.060;21.960;2023-07-31T09:28:57;29.30;54.70
68485;DHT22;55472;50.060;21.960;2023-07-31T09:31:53;28.90;54.70
68485;DHT22;55472;50.060;21.960;2023-07-31T09:34:20;28.70;54.90
68485;DHT22;55472;50.060;21.960;2023-07-31T09:36:57;28.80;54.40
68485;DHT22;55472;50.060;21.960;2023-07-31T09:39:24;30.70;52.70
68485;DHT22;55472;50.060;21.960;2023-07-31T09:41:54;31.10;50.70
68485;DHT22;55472;50.060;21.960;2023-07-31T09:44:21;31.50;50.00
68485;DHT22;55472;50.060;21.960;2023-07-31T09:46:48;31.50;50.00
68485;DHT22;55472;50.060;21.960;2023-07-31T09:49:15;30.90;51.00
68485;DHT22;55472;50.060;21.960;2023-07-31T09:51:42;30.20;52.50
68485;DHT22;55472;50.060;21.960;2023-07-31T09:54:16;29.50;53.00
68485;DHT22;55472;50.060;21.960;2023-07-31T09:56:47;28.90;55.30
68485;DHT22;55472;50.060;21.960;2023-07-31T09:59:18;28.70;56.70
68485;DHT22;55472;50.060;21.960;2023-07-31T10:01:46;28.80;57.00
68485;DHT22;55472;50.060;21.960;2023-07-31T10:04:15;28.80;56.10
68485;DHT22;55472;50.060;21.960;2023-07-31T10:06:49;29.10;55.50
68485;DHT22;55472;50.060;21.960;2023-07-31T10:09:16;28.90;54.90
68485;DHT22;55472;50.060;21.960;2023-07-31T10:11:53;28.80;54.00
68485;DHT22;55472;50.060;21.960;2023-07-31T10:14:24;29.30;53.90
68485;DHT22;55472;50.060;21.960;2023-07-31T10:16:50;29.40;53.80
68485;DHT22;55472;50.060;21.960;2023-07-31T10:19:18;29.40;54.20
68485;DHT22;55472;50.060;21.960;2023-07-31T10:21:46;29.30;54.70
68485;DHT22;55472;50.060;21.960;2023-07-31T10:24:15;29.30;54.20
68485;DHT22;55472;50.060;21.960;2023-07-31T10:26:45;29.40;53.90
68485;DHT22;55472;50.060;21.960;2023-07-31T10:29:12;29.30;53.90
68485;DHT22;55472;50.060;21.960;2023-07-31T10:31:39;29.00;54.10
68485;DHT22;55472;50.060;21.960;2023-07-31T10:34:05;28.70;54.90
68485;DHT22;55472;50.060;21.960;2023-07-31T10:36:32;28.30;55.50
68485;DHT22;55472;50.060;21.960;2023-07-31T10:38:58;27.90;56.40
68485;DHT22;55472;50.060;21.960;2023-07-31T10:41:30;27.50;56.90
68485;DHT22;55472;50.060;21.960;2023-07-31T10:43:59;27.20;58.30
68485;DHT22;55472;50.060;21.960;2023-07-31T10:46:27;26.90;59.00
68485;DHT22;55472;50.060;21.960;2023-07-31T10:48:59;26.80;59.50
68485;DHT22;55472;50.060;21.960;2023-07-31T10:51:34;26.70;60.00
68485;DHT22;55472;50.060;21.960;2023-07-31T10:54:11;26.70;60.10
68485;DHT22;55472;50.060;21.960;2023-07-31T10:56:38;26.70;60.60
68485;DHT22;55472;50.060;21.960;2023-07-31T10:59:05;26.80;60.70
68485;DHT22;55472;50.060;21.960;2023-07-31T11:01:51;26.80;59.70
68485;DHT22;55472;50.060;21.960;2023-07-31T11:04:27;26.80;58.90
68485;DHT22;55472;50.060;21.960;2023-07-31T11:06:59;26.90;59.40
68485;DHT22;55472;50.060;21.960;2023-07-31T11:09:30;27.00;59.30
68485;DHT22;55472;50.060;21.960;2023-07-31T11:11:59;27.00;58.90
68485;DHT22;55472;50.060;21.960;2023-07-31T11:14:25;27.00;58.30
68485;DHT22;55472;50.060;21.960;2023-07-31T11:16:52;27.00;58.40
68485;DHT22;55472;50.060;21.960;2023-07-31T11:19:24;27.10;57.60
68485;DHT22;55472;50.060;21.960;2023-07-31T11:21:52;27.20;57.80
68485;DHT22;55472;50.060;21.960;2023-07-31T11:24:18;27.30;57.60
68485;DHT22;55472;50.060;21.960;2023-07-31T11:26:52;27.40;57.30
68485;DHT22;55472;50.060;21.960;2023-07-31T11:29:27;27.70;56.70
68485;DHT22;55472;50.060;21.960;2023-07-31T11:31:54;27.90;56.50
68485;DHT22;55472;50.060;21.960;2023-07-31T11:34:20;28.10;55.10
68485;DHT22;55472;50.060;21.960;2023-07-31T11:36:54;28.20;55.00
68485;DHT22;55472;50.060;21.960;2023-07-31T11:39:21;28.20;54.40
68485;DHT22;55472;50.060;21.960;2023-07-31T11:41:47;28.20;53.40
68485;DHT22;55472;50.060;21.960;2023-07-31T11:44:13;28.20;53.80
68485;DHT22;55472;50.060;21.960;2023-07-31T11:46:40;28.20;54.00
68485;DHT22;55472;50.060;21.960;2023-07-31T11:49:06;28.20;54.90
68485;DHT22;55472;50.060;21.960;2023-07-31T11:51:32;28.20;55.20
68485;DHT22;55472;50.060;21.960;2023-07-31T11:54:00;28.20;54.60
68485;DHT22;55472;50.060;21.960;2023-07-31T11:56:27;28.10;54.20
68485;DHT22;55472;50.060;21.960;2023-07-31T11:58:57;27.90;54.70
68485;DHT22;55472;50.060;21.960;2023-07-31T12:01:25;27.80;54.80
68485;DHT22;55472;50.060;21.960;2023-07-31T12:03:53;27.70;56.30
68485;DHT22;55472;50.060;21.960;2023-07-31T12:06:20;27.60;55.90
68485;DHT22;55472;50.060;21.960;2023-07-31T12:08:47;27.50;55.20
68485;DHT22;55472;50.060;21.960;2023-07-31T12:11:13;27.30;56.00
68485;DHT22;55472;50.060;21.960;2023-07-31T12:13:40;27.20;56.90
68485;DHT22;55472;50.060;21.960;2023-07-31T12:16:06;27.10;57.00
68485;DHT22;55472;50.060;21.960;2023-07-31T12:18:37;27.00;57.50
68485;DHT22;55472;50.060;21.960;2023-07-31T12:21:07;27.00;57.20
68485;DHT22;55472;50.060;21.960;2023-07-31T12:23:35;27.00;57.00
68485;DHT22;55472;50.060;21.960;2023-07-31T12:26:08;27.10;57.30
68485;DHT22;55472;50.060;21.960;2023-07-31T12:28:47;27.20;57.80
68485;DHT22;55472;50.060;21.960;2023-07-31T12:31:22;27.30;57.90
68485;DHT22;55472;50.060;21.960;2023-07-31T12:33:49;27.50;57.30
68485;DHT22;55472;50.060;21.960;2023-07-31T12:36:20;27.50;56.90
68485;DHT22;55472;50.060;21.960;2023-07-31T12:38:46;27.50;57.40
68485;DHT22;55472;50.060;21.960;2023-07-31T12:41:13;27.50;56.60
68485;DHT22;55472;50.060;21.960;2023-07-31T12:43:41;27.40;57.00
68485;DHT22;55472;50.060;21.960;2023-07-31T12:46:09;27.30;57.30
68485;DHT22;55472;50.060;21.960;2023-07-31T12:48:36;27.30;57.80
68485;DHT22;55472;50.060;21.960;2023-07-31T12:51:03;27.10;57.10
68485;DHT22;55472;50.060;21.960;2023-07-31T12:53:30;26.90;57.30
68485;DHT22;55472;50.060;21.960;2023-07-31T12:55:56;26.80;57.70
68485;DHT22;55472;50.060;21.960;2023-07-31T12:58:23;26.60;58.10
68485;DHT22;55472;50.060;21.960;2023-07-31T13:00:50;26.40;58.30
68485;DHT22;55472;50.060;21.960;2023-07-31T13:03:16;26.20;59.70
68485;DHT22;55472;50.060;21.960;2023-07-31T13:05:42;26.00;59.50
68485;DHT22;55472;50.060;21.960;2023-07-31T13:08:08;25.90;60.20
68485;DHT22;55472;50.060;21.960;2023-07-31T13:10:36;25.80;61.00
68485;DHT22;55472;50.060;21.960;2023-07-31T13:13:02;25.80;60.90
68485;DHT22;55472;50.060;21.960;2023-07-31T13:15:28;25.70;59.70
68485;DHT22;55472;50.060;21.960;2023-07-31T13:17:55;25.60;59.40
68485;DHT22;55472;50.060;21.960;2023-07-31T13:20:21;25.60;60.10
68485;DHT22;55472;50.060;21.960;2023-07-31T13:22:47;25.60;60.40
68485;DHT22;55472;50.060;21.960;2023-07-31T13:25:13;25.70;60.60
68485;DHT22;55472;50.060;21.960;2023-07-31T13:27:40;25.80;61.00
68485;DHT22;55472;50.060;21.960;2023-07-31T13:30:06;26.00;60.50
68485;DHT22;55472;50.060;21.960;2023-07-31T13:32:33;26.10;60.40
68485;DHT22;55472;50.060;21.960;2023-07-31T13:34:59;26.20;59.10
68485;DHT22;55472;50.060;21.960;2023-07-31T13:37:25;26.30;59.60
68485;DHT22;55472;50.060;21.960;2023-07-31T13:39:51;26.40;59.10
68485;DHT22;55472;50.060;21.960;2023-07-31T13:42:17;26.50;58.90
68485;DHT22;55472;50.060;21.960;2023-07-31T13:44:43;26.60;56.90
68485;DHT22;55472;50.060;21.960;2023-07-31T13:47:10;26.60;55.70
68485;DHT22;55472;50.060;21.960;2023-07-31T13:49:36;26.60;56.70
68485;DHT22;55472;50.060;21.960;2023-07-31T13:52:05;26.60;55.90
68485;DHT22;55472;50.060;21.960;2023-07-31T13:54:46;26.50;55.40
68485;DHT22;55472;50.060;21.960;2023-07-31T13:57:12;26.50;56.40
68485;DHT22;55472;50.060;21.960;2023-07-31T13:59:38;26.50;56.50
68485;DHT22;55472;50.060;21.960;2023-07-31T14:02:05;26.40;55.40
68485;DHT22;55472;50.060;21.960;2023-07-31T14:04:31;26.40;55.10
68485;DHT22;55472;50.060;21.960;2023-07-31T14:06:58;26.40;54.40
68485;DHT22;55472;50.060;21.960;2023-07-31T14:09:24;26.40;55.30
68485;DHT22;55472;50.060;21.960;2023-07-31T14:11:51;26.40;54.50
68485;DHT22;55472;50.060;21.960;2023-07-31T14:14:17;26.40;54.30
68485;DHT22;55472;50.060;21.960;2023-07-31T14:16:45;26.40;54.50
68485;DHT22;55472;50.060;21.960;2023-07-31T14:19:11;26.30;54.20
68485;DHT22;55472;50.060;21.960;2023-07-31T14:21:37;26.30;55.40
68485;DHT22;55472;50.060;21.960;2023-07-31T14:24:03;26.30;54.90
68485;DHT22;55472;50.060;21.960;2023-07-31T14:26:30;26.30;54.80
68485;DHT22;55472;50.060;21.960;2023-07-31T14:28:56;26.30;54.50
68485;DHT22;55472;50.060;21.960;2023-07-31T14:31:23;26.20;54.10
68485;DHT22;55472;50.060;21.960;2023-07-31T14:33:49;26.20;54.50
68485;DHT22;55472;50.060;21.960;2023-07-31T14:36:15;26.10;54.60
68485;DHT22;55472;50.060;21.960;2023-07-31T14:38:41;26.00;55.10
68485;DHT22;55472;50.060;21.960;2023-07-31T14:41:07;26.00;55.50
68485;DHT22;55472;50.060;21.960;2023-07-31T14:43:33;25.90;55.50
68485;DHT22;55472;50.060;21.960;2023-07-31T14:46:00;25.90;55.20
68485;DHT22;55472;50.060;21.960;2023-07-31T14:48:26;25.80;55.60
68485;DHT22;55472;50.060;21.960;2023-07-31T14:50:53;25.80;55.00
68485;DHT22;55472;50.060;21.960;2023-07-31T14:53:20;25.70;54.20
68485;DHT22;55472;50.060;21.960;2023-07-31T14:55:47;25.70;53.70
68485;DHT22;55472;50.060;21.960;2023-07-31T14:58:13;25.70;53.10
68485;DHT22;55472;50.060;21.960;2023-07-31T15:00:40;25.60;53.40
68485;DHT22;55472;50.060;21.960;2023-07-31T15:03:06;25.60;54.20
68485;DHT22;55472;50.060;21.960;2023-07-31T15:05:32;25.60;54.00
68485;DHT22;55472;50.060;21.960;2023-07-31T15:07:58;25.50;54.00
68485;DHT22;55472;50.060;21.960;2023-07-31T15:10:25;25.60;53.40
68485;DHT22;55472;50.060;21.960;2023-07-31T15:12:51;25.50;54.30
68485;DHT22;55472;50.060;21.960;2023-07-31T15:15:17;25.50;54.50
68485;DHT22;55472;50.060;21.960;2023-07-31T15:17:43;25.50;53.80
68485;DHT22;55472;50.060;21.960;2023-07-31T15:20:10;25.50;52.90
68485;DHT22;55472;50.060;21.960;2023-07-31T15:22:37;25.40;53.00
68485;DHT22;55472;50.060;21.960;2023-07-31T15:25:05;25.30;53.00